sensor_id;sensor_type;location;lat;lon;timestamp;temperature;humidity
78896;HTU21D;68284;59.124;37.910;2023-09-19T00:00:24;12.95;64.84
78896;HTU21D;68284;59.124;37.910;2023-09-19T00:02:58;12.95;64.85
78896;HTU21D;68284;59.124;37.910;2023-09-19T00:05:28;12.93;64.85
78896;HTU21D;68284;59.124;37.910;2023-09-19T00:07:57;12.93;64.90
78896;HTU21D;68284;59.124;37.910;2023-09-19T00:10:27;12.91;64.99
78896;HTU21D;68284;59.124;37.910;2023-09-19T00:13:00;12.89;65.03
78896;HTU21D;68284;59.124;37.910;2023-09-19T00:15:37;12.88;64.97
78896;HTU21D;68284;59.124;37.910;2023-09-19T00:18:06;12.87;65.01
78896;HTU21D;68284;59.124;37.910;2023-09-19T00:20:32;12.85;65.04
78896;HTU21D;68284;59.124;37.910;2023-09-19T00:23:00;12.84;65.01
78896;HTU21D;68284;59.124;37.910;2023-09-19T00:25:36;12.81;65.08
78896;HTU21D;68284;59.124;37.910;2023-09-19T00:28:04;12.80;65.11
78896;HTU21D;68284;59.124;37.910;2023-09-19T00:30:30;12.79;65.00
78896;HTU21D;68284;59.124;37.910;2023-09-19T00:32:57;12.79;64.76
78896;HTU21D;68284;59.124;37.910;2023-09-19T00:35:23;12.78;64.56
78896;HTU21D;68284;59.124;37.910;2023-09-19T00:37:50;12.78;64.42
78896;HTU21D;68284;59.124;37.910;2023-09-19T00:40:17;12.77;64.39
78896;HTU21D;68284;59.124;37.910;2023-09-19T00:42:46;12.75;64.37
78896;HTU21D;68284;59.124;37.910;2023-09-19T00:45:14;12.76;64.34
78896;HTU21D;68284;59.124;37.910;2023-09-19T00:47:48;12.75;64.38
78896;HTU21D;68284;59.124;37.910;2023-09-19T00:50:20;12.74;64.40
78896;HTU21D;68284;59.124;37.910;2023-09-19T00:52:50;12.76;64.38
78896;HTU21D;68284;59.124;37.910;2023-09-19T00:55:19;12.78;64.41
78896;HTU21D;68284;59.124;37.910;2023-09-19T00:57:46;12.76;64.54
78896;HTU21D;68284;59.124;37.910;2023-09-19T01:00:16;12.76;64.70
78896;HTU21D;68284;59.124;37.910;2023-09-19T01:02:45;12.76;64.87
78896;HTU21D;68284;59.124;37.910;2023-09-19T01:05:13;12.76;64.98
78896;HTU21D;68284;59.124;37.910;2023-09-19T01:07:40;12.76;65.01
78896;HTU21D;68284;59.124;37.910;2023-09-19T01:10:12;12.77;65.01
78896;HTU21D;68284;59.124;37.910;2023-09-19T01:16:31;12.76;64.93
78896;HTU21D;68284;59.124;37.910;2023-09-19T01:19:04;12.77;64.96
78896;HTU21D;68284;59.124;37.910;2023-09-19T01:21:53;12.76;65.04
78896;HTU21D;68284;59.124;37.910;2023-09-19T01:29:49;12.66;65.31
78896;HTU21D;68284;59.124;37.910;2023-09-19T01:32:21;12.63;65.34
78896;HTU21D;68284;59.124;37.910;2023-09-19T01:34:53;12.61;65.40
78896;HTU21D;68284;59.124;37.910;2023-09-19T01:37:21;12.61;65.53
78896;HTU21D;68284;59.124;37.910;2023-09-19T01:40:03;12.60;65.74
78896;HTU21D;68284;59.124;37.910;2023-09-19T01:45:35;12.56;66.21
78896;HTU21D;68284;59.124;37.910;2023-09-19T01:50:55;12.51;66.36
78896;HTU21D;68284;59.124;37.910;2023-09-19T01:53:28;12.48;66.47
78896;HTU21D;68284;59.124;37.910;2023-09-19T01:55:57;12.47;66.61
78896;HTU21D;68284;59.124;37.910;2023-09-19T01:58:34;12.44;66.76
78896;HTU21D;68284;59.124;37.910;2023-09-19T02:01:05;12.42;66.77
78896;HTU21D;68284;59.124;37.910;2023-09-19T02:03:35;12.38;66.90
78896;HTU21D;68284;59.124;37.910;2023-09-19T02:06:04;12.35;66.98
78896;HTU21D;68284;59.124;37.910;2023-09-19T02:08:31;12.31;67.04
78896;HTU21D;68284;59.124;37.910;2023-09-19T02:10:59;12.29;67.14
78896;HTU21D;68284;59.124;37.910;2023-09-19T02:13:26;12.25;67.30
78896;HTU21D;68284;59.124;37.910;2023-09-19T02:15:54;12.21;67.44
78896;HTU21D;68284;59.124;37.910;2023-09-19T02:18:20;12.17;67.55
78896;HTU21D;68284;59.124;37.910;2023-09-19T02:20:47;12.14;67.49
78896;HTU21D;68284;59.124;37.910;2023-09-19T02:23:14;12.13;67.61
78896;HTU21D;68284;59.124;37.910;2023-09-19T02:25:41;12.10;67.55
78896;HTU21D;68284;59.124;37.910;2023-09-19T02:28:09;12.10;67.72
78896;HTU21D;68284;59.124;37.910;2023-09-19T02:30:35;12.11;67.83
78896;HTU21D;68284;59.124;37.910;2023-09-19T02:33:03;12.12;67.88
78896;HTU21D;68284;59.124;37.910;2023-09-19T02:35:30;12.13;67.95
78896;HTU21D;68284;59.124;37.910;2023-09-19T02:38:02;12.12;68.02
78896;HTU21D;68284;59.124;37.910;2023-09-19T02:40:32;12.11;68.14
78896;HTU21D;68284;59.124;37.910;2023-09-19T02:43:01;12.10;68.33
78896;HTU21D;68284;59.124;37.910;2023-09-19T02:45:27;12.06;68.44
78896;HTU21D;68284;59.124;37.910;2023-09-19T02:47:54;12.05;68.36
78896;HTU21D;68284;59.124;37.910;2023-09-19T02:50:20;12.03;68.55
78896;HTU21D;68284;59.124;37.910;2023-09-19T02:52:47;12.03;68.71
78896;HTU21D;68284;59.124;37.910;2023-09-19T02:55:18;12.01;68.97
78896;HTU21D;68284;59.124;37.910;2023-09-19T02:57:46;12.00;69.08
78896;HTU21D;68284;59.124;37.910;2023-09-19T03:00:13;12.00;69.21
78896;HTU21D;68284;59.124;37.910;2023-09-19T03:02:39;12.02;69.26
78896;HTU21D;68284;59.124;37.910;2023-09-19T03:05:08;12.03;69.29
78896;HTU21D;68284;59.124;37.910;2023-09-19T03:07:38;12.02;69.35
78896;HTU21D;68284;59.124;37.910;2023-09-19T03:10:07;12.03;69.49
78896;HTU21D;68284;59.124;37.910;2023-09-19T03:12:34;12.03;69.53
78896;HTU21D;68284;59.124;37.910;2023-09-19T03:15:01;12.04;69.63
78896;HTU21D;68284;59.124;37.910;2023-09-19T03:17:31;12.07;69.69
78896;HTU21D;68284;59.124;37.910;2023-09-19T03:19:59;12.11;69.78
78896;HTU21D;68284;59.124;37.910;2023-09-19T03:22:26;12.10;69.87
78896;HTU21D;68284;59.124;37.910;2023-09-19T03:24:53;12.11;69.73
78896;HTU21D;68284;59.124;37.910;2023-09-19T03:27:20;12.16;69.86
78896;HTU21D;68284;59.124;37.910;2023-09-19T03:29:47;12.18;70.03
78896;HTU21D;68284;59.124;37.910;2023-09-19T03:32:13;12.22;70.12
78896;HTU21D;68284;59.124;37.910;2023-09-19T03:34:39;12.27;70.13
78896;HTU21D;68284;59.124;37.910;2023-09-19T03:37:09;12.30;69.91
78896;HTU21D;68284;59.124;37.910;2023-09-19T03:39:37;12.35;69.94
78896;HTU21D;68284;59.124;37.910;2023-09-19T03:42:04;12.40;70.00
78896;HTU21D;68284;59.124;37.910;2023-09-19T03:44:31;12.43;70.03
78896;HTU21D;68284;59.124;37.910;2023-09-19T03:46:57;12.46;70.09
78896;HTU21D;68284;59.124;37.910;2023-09-19T03:49:24;12.49;70.11
78896;HTU21D;68284;59.124;37.910;2023-09-19T03:51:52;12.51;70.10
78896;HTU21D;68284;59.124;37.910;2023-09-19T03:54:19;12.55;70.15
78896;HTU21D;68284;59.124;37.910;2023-09-19T03:56:45;12.59;70.16
78896;HTU21D;68284;59.124;37.910;2023-09-19T03:59:12;12.60;70.13
78896;HTU21D;68284;59.124;37.910;2023-09-19T04:01:38;12.63;70.07
78896;HTU21D;68284;59.124;37.910;2023-09-19T04:04:05;12.66;69.94
78896;HTU21D;68284;59.124;37.910;2023-09-19T04:06:35;12.71;70.00
78896;HTU21D;68284;59.124;37.910;2023-09-19T04:09:02;12.76;70.03
78896;HTU21D;68284;59.124;37.910;2023-09-19T04:11:30;12.81;69.88
78896;HTU21D;68284;59.124;37.910;2023-09-19T04:13:57;12.85;70.04
78896;HTU21D;68284;59.124;37.910;2023-09-19T04:16:24;12.91;70.23
78896;HTU21D;68284;59.124;37.910;2023-09-19T04:18:51;12.97;70.41
78896;HTU21D;68284;59.124;37.910;2023-09-19T04:21:17;13.05;70.57
78896;HTU21D;68284;59.124;37.910;2023-09-19T04:23:44;13.14;70.70
78896;HTU21D;68284;59.124;37.910;2023-09-19T04:26:10;13.19;70.91
78896;HTU21D;68284;59.124;37.910;2023-09-19T04:28:37;13.23;71.12
78896;HTU21D;68284;59.124;37.910;2023-09-19T04:31:05;13.27;71.29
78896;HTU21D;68284;59.124;37.910;2023-09-19T04:33:33;13.30;71.45
78896;HTU21D;68284;59.124;37.910;2023-09-19T04:36:01;13.31;71.60
78896;HTU21D;68284;59.124;37.910;2023-09-19T04:38:33;13.30;71.69
78896;HTU21D;68284;59.124;37.910;2023-09-19T04:40:59;13.31;71.78
78896;HTU21D;68284;59.124;37.910;2023-09-19T04:43:26;13.33;71.83
78896;HTU21D;68284;59.124;37.910;2023-09-19T04:45:52;13.37;71.85
78896;HTU21D;68284;59.124;37.910;2023-09-19T04:48:23;13.39;71.82
78896;HTU21D;68284;59.124;37.910;2023-09-19T04:50:50;13.44;71.81
78896;HTU21D;68284;59.124;37.910;2023-09-19T04:53:18;13.49;71.77
78896;HTU21D;68284;59.124;37.910;2023-09-19T04:55:51;13.56;71.72
78896;HTU21D;68284;59.124;37.910;2023-09-19T04:58:24;13.62;71.45
78896;HTU21D;68284;59.124;37.910;2023-09-19T05:00:53;13.66;71.35
78896;HTU21D;68284;59.124;37.910;2023-09-19T05:03:21;13.70;71.27
78896;HTU21D;68284;59.124;37.910;2023-09-19T05:05:49;13.73;71.02
78896;HTU21D;68284;59.124;37.910;2023-09-19T05:08:17;13.73;70.83
78896;HTU21D;68284;59.124;37.910;2023-09-19T05:10:44;13.69;70.83
78896;HTU21D;68284;59.124;37.910;2023-09-19T05:13:12;13.74;70.77
78896;HTU21D;68284;59.124;37.910;2023-09-19T05:15:38;13.78;70.68
78896;HTU21D;68284;59.124;37.910;2023-09-19T05:18:08;13.85;70.51
78896;HTU21D;68284;59.124;37.910;2023-09-19T05:20:36;13.92;70.38
78896;HTU21D;68284;59.124;37.910;2023-09-19T05:23:05;14.01;70.10
78896;HTU21D;68284;59.124;37.910;2023-09-19T05:25:38;14.06;69.81
78896;HTU21D;68284;59.124;37.910;2023-09-19T05:28:08;14.09;69.56
78896;HTU21D;68284;59.124;37.910;2023-09-19T05:30:35;14.10;69.45
78896;HTU21D;68284;59.124;37.910;2023-09-19T05:33:03;14.12;69.29
78896;HTU21D;68284;59.124;37.910;2023-09-19T05:35:32;14.13;69.16
78896;HTU21D;68284;59.124;37.910;2023-09-19T05:37:59;14.13;69.12
78896;HTU21D;68284;59.124;37.910;2023-09-19T05:40:26;14.17;69.03
78896;HTU21D;68284;59.124;37.910;2023-09-19T05:42:56;14.21;68.80
78896;HTU21D;68284;59.124;37.910;2023-09-19T05:45:22;14.24;68.49
78896;HTU21D;68284;59.124;37.910;2023-09-19T05:47:50;14.25;67.96
78896;HTU21D;68284;59.124;37.910;2023-09-19T05:50:22;14.19;67.66
78896;HTU21D;68284;59.124;37.910;2023-09-19T05:52:53;14.12;67.51
78896;HTU21D;68284;59.124;37.910;2023-09-19T05:55:24;14.05;67.46
78896;HTU21D;68284;59.124;37.910;2023-09-19T05:57:51;14.05;67.46
78896;HTU21D;68284;59.124;37.910;2023-09-19T06:00:23;14.06;67.44
78896;HTU21D;68284;59.124;37.910;2023-09-19T06:02:51;14.09;67.36
78896;HTU21D;68284;59.124;37.910;2023-09-19T06:05:19;14.12;67.07
78896;HTU21D;68284;59.124;37.910;2023-09-19T06:07:47;14.14;66.89
78896;HTU21D;68284;59.124;37.910;2023-09-19T06:10:17;14.18;66.72
78896;HTU21D;68284;59.124;37.910;2023-09-19T06:12:44;14.20;66.53
78896;HTU21D;68284;59.124;37.910;2023-09-19T06:15:12;14.23;66.37
78896;HTU21D;68284;59.124;37.910;2023-09-19T06:17:46;14.26;66.19
78896;HTU21D;68284;59.124;37.910;2023-09-19T06:20:12;14.26;66.07
78896;HTU21D;68284;59.124;37.910;2023-09-19T06:22:42;14.28;66.02
78896;HTU21D;68284;59.124;37.910;2023-09-19T06:25:09;14.33;65.95
78896;HTU21D;68284;59.124;37.910;2023-09-19T06:27:38;14.38;65.80
78896;HTU21D;68284;59.124;37.910;2023-09-19T06:30:10;14.47;65.73
78896;HTU21D;68284;59.124;37.910;2023-09-19T06:32:44;14.54;65.50
78896;HTU21D;68284;59.124;37.910;2023-09-19T06:35:17;14.62;65.39
78896;HTU21D;68284;59.124;37.910;2023-09-19T06:37:51;14.65;65.27
78896;HTU21D;68284;59.124;37.910;2023-09-19T06:40:17;14.68;65.25
78896;HTU21D;68284;59.124;37.910;2023-09-19T06:42:51;14.72;65.31
78896;HTU21D;68284;59.124;37.910;2023-09-19T06:45:20;14.75;65.25
78896;HTU21D;68284;59.124;37.910;2023-09-19T06:47:55;14.77;65.19
78896;HTU21D;68284;59.124;37.910;2023-09-19T06:50:24;14.78;65.21
78896;HTU21D;68284;59.124;37.910;2023-09-19T06:52:52;14.81;65.26
78896;HTU21D;68284;59.124;37.910;2023-09-19T06:55:22;14.88;65.24
78896;HTU21D;68284;59.124;37.910;2023-09-19T06:57:51;14.97;65.19
78896;HTU21D;68284;59.124;37.910;2023-09-19T07:00:19;15.09;64.99
78896;HTU21D;68284;59.124;37.910;2023-09-19T07:02:58;15.13;64.85
78896;HTU21D;68284;59.124;37.910;2023-09-19T07:05:30;15.23;64.71
78896;HTU21D;68284;59.124;37.910;2023-09-19T07:07:58;15.29;64.69
78896;HTU21D;68284;59.124;37.910;2023-09-19T07:10:27;15.37;64.53
78896;HTU21D;68284;59.124;37.910;2023-09-19T07:13:05;15.38;64.44
78896;HTU21D;68284;59.124;37.910;2023-09-19T07:15:41;15.38;64.50
78896;HTU21D;68284;59.124;37.910;2023-09-19T07:18:17;15.42;64.59
78896;HTU21D;68284;59.124;37.910;2023-09-19T07:20:46;15.52;64.55
78896;HTU21D;68284;59.124;37.910;2023-09-19T07:23:20;15.68;64.14
78896;HTU21D;68284;59.124;37.910;2023-09-19T07:25:50;15.76;63.92
78896;HTU21D;68284;59.124;37.910;2023-09-19T07:28:16;15.91;63.62
78896;HTU21D;68284;59.124;37.910;2023-09-19T07:30:47;16.01;63.05
78896;HTU21D;68284;59.124;37.910;2023-09-19T07:33:14;16.01;62.78
78896;HTU21D;68284;59.124;37.910;2023-09-19T07:35:45;16.01;62.59
78896;HTU21D;68284;59.124;37.910;2023-09-19T07:38:14;16.01;62.48
78896;HTU21D;68284;59.124;37.910;2023-09-19T07:40:45;16.04;62.13
78896;HTU21D;68284;59.124;37.910;2023-09-19T07:43:14;16.06;62.02
78896;HTU21D;68284;59.124;37.910;2023-09-19T07:45:45;16.12;61.80
78896;HTU21D;68284;59.124;37.910;2023-09-19T07:48:16;16.12;61.70
78896;HTU21D;68284;59.124;37.910;2023-09-19T07:50:50;16.14;61.69
78896;HTU21D;68284;59.124;37.910;2023-09-19T07:53:18;16.16;61.47
78896;HTU21D;68284;59.124;37.910;2023-09-19T07:56:01;16.14;61.58
78896;HTU21D;68284;59.124;37.910;2023-09-19T07:58:41;16.18;61.49
78896;HTU21D;68284;59.124;37.910;2023-09-19T08:01:11;16.19;61.21
78896;HTU21D;68284;59.124;37.910;2023-09-19T08:03:40;16.18;61.26
78896;HTU21D;68284;59.124;37.910;2023-09-19T08:06:14;16.19;61.28
78896;HTU21D;68284;59.124;37.910;2023-09-19T08:08:45;16.24;61.13
78896;HTU21D;68284;59.124;37.910;2023-09-19T08:11:13;16.32;60.91
78896;HTU21D;68284;59.124;37.910;2023-09-19T08:13:47;16.41;60.59
78896;HTU21D;68284;59.124;37.910;2023-09-19T08:16:17;16.51;60.44
78896;HTU21D;68284;59.124;37.910;2023-09-19T08:18:49;16.63;60.08
78896;HTU21D;68284;59.124;37.910;2023-09-19T08:21:24;16.71;59.83
78896;HTU21D;68284;59.124;37.910;2023-09-19T08:23:54;16.75;59.69
78896;HTU21D;68284;59.124;37.910;2023-09-19T08:26:25;16.72;59.41
78896;HTU21D;68284;59.124;37.910;2023-09-19T08:28:53;16.65;59.40
78896;HTU21D;68284;59.124;37.910;2023-09-19T08:31:19;16.61;59.56
78896;HTU21D;68284;59.124;37.910;2023-09-19T08:33:47;16.64;59.57
78896;HTU21D;68284;59.124;37.910;2023-09-19T08:36:19;16.69;59.45
78896;HTU21D;68284;59.124;37.910;2023-09-19T08:38:50;16.76;59.41
78896;HTU21D;68284;59.124;37.910;2023-09-19T08:41:17;16.87;59.26
78896;HTU21D;68284;59.124;37.910;2023-09-19T08:43:44;16.98;59.27
78896;HTU21D;68284;59.124;37.910;2023-09-19T08:46:17;17.16;59.16
78896;HTU21D;68284;59.124;37.910;2023-09-19T08:49:11;17.31;58.93
78896;HTU21D;68284;59.124;37.910;2023-09-19T08:51:44;17.39;58.85
78896;HTU21D;68284;59.124;37.910;2023-09-19T08:54:24;17.54;58.48
78896;HTU21D;68284;59.124;37.910;2023-09-19T08:56:54;17.67;58.32
78896;HTU21D;68284;59.124;37.910;2023-09-19T08:59:22;17.77;57.93
78896;HTU21D;68284;59.124;37.910;2023-09-19T09:01:53;17.82;57.80
78896;HTU21D;68284;59.124;37.910;2023-09-19T09:04:22;17.90;57.67
78896;HTU21D;68284;59.124;37.910;2023-09-19T09:06:50;18.04;57.29
78896;HTU21D;68284;59.124;37.910;2023-09-19T09:09:20;18.15;56.89
78896;HTU21D;68284;59.124;37.910;2023-09-19T09:12:04;18.25;56.66
78896;HTU21D;68284;59.124;37.910;2023-09-19T09:14:32;18.30;56.48
78896;HTU21D;68284;59.124;37.910;2023-09-19T09:17:00;18.36;56.23
78896;HTU21D;68284;59.124;37.910;2023-09-19T09:19:30;18.29;56.28
78896;HTU21D;68284;59.124;37.910;2023-09-19T09:22:07;18.24;56.01
78896;HTU21D;68284;59.124;37.910;2023-09-19T09:24:54;18.15;55.98
78896;HTU21D;68284;59.124;37.910;2023-09-19T09:27:29;18.09;56.17
78896;HTU21D;68284;59.124;37.910;2023-09-19T09:30:01;18.05;56.25
78896;HTU21D;68284;59.124;37.910;2023-09-19T09:32:30;18.05;56.35
78896;HTU21D;68284;59.124;37.910;2023-09-19T09:35:07;18.08;56.04
78896;HTU21D;68284;59.124;37.910;2023-09-19T09:37:43;18.02;55.89
78896;HTU21D;68284;59.124;37.910;2023-09-19T09:40:09;17.98;56.02
78896;HTU21D;68284;59.124;37.910;2023-09-19T09:42:44;17.93;56.10
78896;HTU21D;68284;59.124;37.910;2023-09-19T09:45:24;17.88;56.18
78896;HTU21D;68284;59.124;37.910;2023-09-19T09:48:00;17.84;56.30
78896;HTU21D;68284;59.124;37.910;2023-09-19T09:50:34;17.87;56.11
78896;HTU21D;68284;59.124;37.910;2023-09-19T09:53:39;17.98;55.99
78896;HTU21D;68284;59.124;37.910;2023-09-19T09:56:07;18.10;55.71
78896;HTU21D;68284;59.124;37.910;2023-09-19T09:58:36;18.24;55.64
78896;HTU21D;68284;59.124;37.910;2023-09-19T10:01:05;18.42;55.57
78896;HTU21D;68284;59.124;37.910;2023-09-19T10:03:37;18.63;55.44
78896;HTU21D;68284;59.124;37.910;2023-09-19T10:06:08;18.80;55.06
78896;HTU21D;68284;59.124;37.910;2023-09-19T10:09:03;18.84;54.70
78896;HTU21D;68284;59.124;37.910;2023-09-19T10:12:15;18.97;54.73
78896;HTU21D;68284;59.124;37.910;2023-09-19T10:14:43;19.14;54.68
78896;HTU21D;68284;59.124;37.910;2023-09-19T10:17:12;19.38;54.17
78896;HTU21D;68284;59.124;37.910;2023-09-19T10:19:50;19.45;54.06
78896;HTU21D;68284;59.124;37.910;2023-09-19T10:22:19;19.46;54.25
78896;HTU21D;68284;59.124;37.910;2023-09-19T10:24:49;19.50;54.13
78896;HTU21D;68284;59.124;37.910;2023-09-19T10:27:19;19.53;53.91
78896;HTU21D;68284;59.124;37.910;2023-09-19T10:29:49;19.46;53.89
78896;HTU21D;68284;59.124;37.910;2023-09-19T10:32:18;19.38;54.11
78896;HTU21D;68284;59.124;37.910;2023-09-19T10:34:49;19.46;54.32
78896;HTU21D;68284;59.124;37.910;2023-09-19T10:37:16;19.75;54.15
78896;HTU21D;68284;59.124;37.910;2023-09-19T10:39:49;20.10;53.59
78896;HTU21D;68284;59.124;37.910;2023-09-19T10:42:20;20.36;53.10
78896;HTU21D;68284;59.124;37.910;2023-09-19T10:44:51;20.59;52.56
78896;HTU21D;68284;59.124;37.910;2023-09-19T10:47:20;20.88;52.17
78896;HTU21D;68284;59.124;37.910;2023-09-19T10:49:53;21.25;51.28
78896;HTU21D;68284;59.124;37.910;2023-09-19T10:52:23;21.53;50.56
78896;HTU21D;68284;59.124;37.910;2023-09-19T10:54:52;21.82;50.30
78896;HTU21D;68284;59.124;37.910;2023-09-19T10:57:25;22.10;49.65
78896;HTU21D;68284;59.124;37.910;2023-09-19T11:00:05;22.34;48.73
78896;HTU21D;68284;59.124;37.910;2023-09-19T11:05:42;23.06;47.32
78896;HTU21D;68284;59.124;37.910;2023-09-19T11:08:10;23.05;46.44
78896;HTU21D;68284;59.124;37.910;2023-09-19T11:10:48;22.98;46.65
78896;HTU21D;68284;59.124;37.910;2023-09-19T11:13:32;23.10;46.49
78896;HTU21D;68284;59.124;37.910;2023-09-19T11:16:18;23.34;45.70
78896;HTU21D;68284;59.124;37.910;2023-09-19T11:18:52;23.44;45.40
78896;HTU21D;68284;59.124;37.910;2023-09-19T11:21:53;23.50;44.97
78896;HTU21D;68284;59.124;37.910;2023-09-19T11:24:33;23.42;44.88
78896;HTU21D;68284;59.124;37.910;2023-09-19T11:27:13;23.17;44.77
78896;HTU21D;68284;59.124;37.910;2023-09-19T11:29:40;22.90;45.18
78896;HTU21D;68284;59.124;37.910;2023-09-19T11:32:07;22.60;45.57
78896;HTU21D;68284;59.124;37.910;2023-09-19T11:40:05;22.65;45.60
78896;HTU21D;68284;59.124;37.910;2023-09-19T11:42:52;23.30;44.96
78896;HTU21D;68284;59.124;37.910;2023-09-19T11:48:24;23.90;43.64
78896;HTU21D;68284;59.124;37.910;2023-09-19T11:50:55;23.73;43.59
78896;HTU21D;68284;59.124;37.910;2023-09-19T11:53:31;23.56;43.59
78896;HTU21D;68284;59.124;37.910;2023-09-19T11:56:01;23.45;43.75
78896;HTU21D;68284;59.124;37.910;2023-09-19T11:58:28;23.50;43.71
78896;HTU21D;68284;59.124;37.910;2023-09-19T12:00:58;23.87;43.25
78896;HTU21D;68284;59.124;37.910;2023-09-19T12:03:38;24.01;43.19
78896;HTU21D;68284;59.124;37.910;2023-09-19T12:06:12;24.01;43.05
78896;HTU21D;68284;59.124;37.910;2023-09-19T12:08:43;24.35;42.94
78896;HTU21D;68284;59.124;37.910;2023-09-19T12:11:17;24.93;42.14
78896;HTU21D;68284;59.124;37.910;2023-09-19T12:14:02;25.46;40.93
78896;HTU21D;68284;59.124;37.910;2023-09-19T12:16:30;25.58;40.19
78896;HTU21D;68284;59.124;37.910;2023-09-19T12:18:57;25.29;40.73
78896;HTU21D;68284;59.124;37.910;2023-09-19T12:21:30;24.80;41.27
78896;HTU21D;68284;59.124;37.910;2023-09-19T12:24:04;24.21;41.67
78896;HTU21D;68284;59.124;37.910;2023-09-19T12:26:39;23.60;42.53
78896;HTU21D;68284;59.124;37.910;2023-09-19T12:29:25;23.03;43.40
78896;HTU21D;68284;59.124;37.910;2023-09-19T12:31:53;22.52;44.33
78896;HTU21D;68284;59.124;37.910;2023-09-19T12:34:31;22.01;45.43
78896;HTU21D;68284;59.124;37.910;2023-09-19T12:37:15;21.50;46.28
78896;HTU21D;68284;59.124;37.910;2023-09-19T12:39:48;21.13;47.18
78896;HTU21D;68284;59.124;37.910;2023-09-19T12:42:17;20.85;47.84
78896;HTU21D;68284;59.124;37.910;2023-09-19T12:44:45;20.59;48.60
78896;HTU21D;68284;59.124;37.910;2023-09-19T12:47:14;20.37;49.04
78896;HTU21D;68284;59.124;37.910;2023-09-19T12:50:12;20.19;49.56
78896;HTU21D;68284;59.124;37.910;2023-09-19T12:52:49;20.02;50.08
78896;HTU21D;68284;59.124;37.910;2023-09-19T12:55:30;19.82;50.55
78896;HTU21D;68284;59.124;37.910;2023-09-19T12:58:12;19.62;51.08
78896;HTU21D;68284;59.124;37.910;2023-09-19T13:00:43;19.43;51.40
78896;HTU21D;68284;59.124;37.910;2023-09-19T13:08:21;18.92;53.07
78896;HTU21D;68284;59.124;37.910;2023-09-19T13:11:05;18.85;53.58
78896;HTU21D;68284;59.124;37.910;2023-09-19T13:14:34;18.78;53.48
78896;HTU21D;68284;59.124;37.910;2023-09-19T13:17:00;18.69;53.78
78896;HTU21D;68284;59.124;37.910;2023-09-19T13:19:48;18.59;53.83
78896;HTU21D;68284;59.124;37.910;2023-09-19T13:25:10;18.46;54.17
78896;HTU21D;68284;59.124;37.910;2023-09-19T13:27:42;18.37;54.36
78896;HTU21D;68284;59.124;37.910;2023-09-19T13:30:11;18.29;54.65
78896;HTU21D;68284;59.124;37.910;2023-09-19T13:32:37;18.24;54.85
78896;HTU21D;68284;59.124;37.910;2023-09-19T13:35:09;18.26;54.96
78896;HTU21D;68284;59.124;37.910;2023-09-19T13:37:38;18.26;55.10
78896;HTU21D;68284;59.124;37.910;2023-09-19T13:40:12;18.30;55.14
78896;HTU21D;68284;59.124;37.910;2023-09-19T13:42:39;18.39;55.04
78896;HTU21D;68284;59.124;37.910;2023-09-19T13:45:08;18.47;55.07
78896;HTU21D;68284;59.124;37.910;2023-09-19T13:47:42;18.55;54.93
78896;HTU21D;68284;59.124;37.910;2023-09-19T13:50:09;18.55;55.06
78896;HTU21D;68284;59.124;37.910;2023-09-19T13:52:38;18.56;55.33
78896;HTU21D;68284;59.124;37.910;2023-09-19T13:55:04;18.56;55.23
78896;HTU21D;68284;59.124;37.910;2023-09-19T13:57:34;18.49;55.31
78896;HTU21D;68284;59.124;37.910;2023-09-19T14:00:00;18.43;55.46
78896;HTU21D;68284;59.124;37.910;2023-09-19T14:02:51;18.38;55.54
78896;HTU21D;68284;59.124;37.910;2023-09-19T14:05:21;18.34;55.65
78896;HTU21D;68284;59.124;37.910;2023-09-19T14:07:49;18.28;55.91
78896;HTU21D;68284;59.124;37.910;2023-09-19T14:10:21;18.23;56.21
78896;HTU21D;68284;59.124;37.910;2023-09-19T14:13:01;18.23;56.42
78896;HTU21D;68284;59.124;37.910;2023-09-19T14:15:52;18.21;56.59
78896;HTU21D;68284;59.124;37.910;2023-09-19T14:18:22;18.24;56.73
78896;HTU21D;68284;59.124;37.910;2023-09-19T14:20:52;18.54;56.55
78896;HTU21D;68284;59.124;37.910;2023-09-19T14:23:19;18.87;55.97
78896;HTU21D;68284;59.124;37.910;2023-09-19T14:25:45;19.12;55.52
78896;HTU21D;68284;59.124;37.910;2023-09-19T14:28:12;19.48;54.88
78896;HTU21D;68284;59.124;37.910;2023-09-19T14:30:41;19.75;54.25
78896;HTU21D;68284;59.124;37.910;2023-09-19T14:33:12;19.84;53.94
78896;HTU21D;68284;59.124;37.910;2023-09-19T14:35:44;19.77;53.98
78896;HTU21D;68284;59.124;37.910;2023-09-19T14:38:11;19.61;54.23
78896;HTU21D;68284;59.124;37.910;2023-09-19T14:40:40;19.44;54.76
78896;HTU21D;68284;59.124;37.910;2023-09-19T14:43:09;19.26;55.33
78896;HTU21D;68284;59.124;37.910;2023-09-19T14:45:39;19.14;55.48
78896;HTU21D;68284;59.124;37.910;2023-09-19T14:48:17;19.06;55.75
78896;HTU21D;68284;59.124;37.910;2023-09-19T14:50:44;19.15;55.66
78896;HTU21D;68284;59.124;37.910;2023-09-19T14:53:10;19.40;55.34
78896;HTU21D;68284;59.124;37.910;2023-09-19T14:55:39;19.69;54.76
78896;HTU21D;68284;59.124;37.910;2023-09-19T14:58:18;19.96;54.60
78896;HTU21D;68284;59.124;37.910;2023-09-19T15:00:52;20.26;54.12
78896;HTU21D;68284;59.124;37.910;2023-09-19T15:03:21;20.50;53.71
78896;HTU21D;68284;59.124;37.910;2023-09-19T15:05:48;20.69;53.19
78896;HTU21D;68284;59.124;37.910;2023-09-19T15:08:17;20.86;52.98
78896;HTU21D;68284;59.124;37.910;2023-09-19T15:10:50;21.01;52.33
78896;HTU21D;68284;59.124;37.910;2023-09-19T15:13:21;21.08;52.01
78896;HTU21D;68284;59.124;37.910;2023-09-19T15:15:52;21.03;51.85
78896;HTU21D;68284;59.124;37.910;2023-09-19T15:18:23;20.80;52.10
78896;HTU21D;68284;59.124;37.910;2023-09-19T15:20:51;20.40;52.90
78896;HTU21D;68284;59.124;37.910;2023-09-19T15:23:23;20.05;53.67
78896;HTU21D;68284;59.124;37.910;2023-09-19T15:25:50;19.70;54.27
78896;HTU21D;68284;59.124;37.910;2023-09-19T15:28:23;19.35;55.04
78896;HTU21D;68284;59.124;37.910;2023-09-19T15:30:56;19.03;55.74
78896;HTU21D;68284;59.124;37.910;2023-09-19T15:33:34;18.71;56.46
78896;HTU21D;68284;59.124;37.910;2023-09-19T15:36:11;18.48;57.13
78896;HTU21D;68284;59.124;37.910;2023-09-19T15:39:00;18.25;58.10
78896;HTU21D;68284;59.124;37.910;2023-09-19T15:41:32;18.09;58.29
78896;HTU21D;68284;59.124;37.910;2023-09-19T15:44:02;17.93;58.81
78896;HTU21D;68284;59.124;37.910;2023-09-19T15:46:33;17.78;59.43
78896;HTU21D;68284;59.124;37.910;2023-09-19T15:49:06;17.61;59.87
78896;HTU21D;68284;59.124;37.910;2023-09-19T15:51:35;17.53;60.62
78896;HTU21D;68284;59.124;37.910;2023-09-19T15:54:13;17.41;61.02
78896;HTU21D;68284;59.124;37.910;2023-09-19T15:56:45;17.32;61.17
78896;HTU21D;68284;59.124;37.910;2023-09-19T15:59:15;17.21;61.49
78896;HTU21D;68284;59.124;37.910;2023-09-19T16:01:45;17.10;61.88